Mustafa Sofuoglu — TCOJ7 — position and weather

sailwx.info

Track history (hours):
 
Tides and Currents Weather Stations Pressure Air Temp Water Temp Dewpoint Dewpoint Depression Visibility Wind Speed Wind Dir Waves Ship Positions

Mustafa Sofuoglu

Last reported at 2017-Apr-26 00:22 UTC. Time now 2017-Apr-27 14:50 UTC.
Position N 40°47' E 029°36'.

Length 106 m; draft 7.2 m.

Type: Cargo ship. MMSI: 271000831.

Date/timePositionNaut miles runAvg speedWind from/ knotsBaromVisibWave heightAir tempDewpointWater temp
2017-Apr-26 00:22N 40°47' E 029°36'2 4.7
2017-Apr-26 00:00N 40°45' E 029°34'5 9.6
2017-Apr-25 23:30N 40°44' E 029°28'510.7
2017-Apr-25 23:00N 40°44' E 029°21'5 9.7
2017-Apr-25 22:30N 40°45' E 029°15'612.2
2017-Apr-25 22:00N 40°48' E 029°08'612.2
2017-Apr-25 21:30N 40°51' E 029°00'611.8
2017-Apr-25 20:59N 40°56' E 028°57'  
2017-Apr-18 20:55N 40°59' E 028°60'810.0
2017-Apr-18 20:05N 40°54' E 029°08'111.0
2017-Apr-18 20:00N 40°53' E 029°09'2 4.0
2017-Apr-18 19:24N 40°52' E 029°12'0 0.0
2017-Apr-18 19:00N 40°52' E 029°12'0 0.0
2017-Apr-18 18:30N 40°52' E 029°12'0 0.0
2017-Apr-18 18:00N 40°52' E 029°12'0 0.0
2017-Apr-18 17:30N 40°52' E 029°12'0 0.0
2017-Apr-18 17:00N 40°52' E 029°12'0 0.1
2017-Apr-18 16:30N 40°52' E 029°12'0 0.1
2017-Apr-18 16:00N 40°52' E 029°12'1 1.2
2017-Apr-18 15:30N 40°52' E 029°12'2 4.1
2017-Apr-18 15:00N 40°51' E 029°15'0 0.0
2017-Apr-18 13:59N 40°51' E 029°15'0 0.0
2017-Apr-18 13:29N 40°51' E 029°15'0 0.0
2017-Apr-18 12:59N 40°51' E 029°15'0 0.0
2017-Apr-18 12:23N 40°51' E 029°15'0 0.0
2017-Apr-18 11:59N 40°51' E 029°15'0 0.0
2017-Apr-18 11:29N 40°51' E 029°15'0 0.0
2017-Apr-18 10:59N 40°51' E 029°15'0 0.0
2017-Apr-18 10:29N 40°51' E 029°15'0 0.0
2017-Apr-18 09:59N 40°51' E 029°15'0 0.0
2017-Apr-18 09:29N 40°51' E 029°15'0 0.0
2017-Apr-18 08:59N 40°51' E 029°15'0 0.0
2017-Apr-18 08:29N 40°51' E 029°15'0 0.0
2017-Apr-18 07:59N 40°51' E 029°15'0 0.0
2017-Apr-18 07:29N 40°51' E 029°15'0 0.0
2017-Apr-18 06:59N 40°51' E 029°15'0 0.0
2017-Apr-18 06:29N 40°51' E 029°15'0 0.0
2017-Apr-18 05:59N 40°51' E 029°15'0 0.0
2017-Apr-18 05:23N 40°51' E 029°15'0 0.0
2017-Apr-18 04:59N 40°51' E 029°15'0 0.0
2017-Apr-18 04:29N 40°51' E 029°15'0 0.0
2017-Apr-18 03:59N 40°51' E 029°15'0 0.0
2017-Apr-18 03:29N 40°51' E 029°15'0 0.0
2017-Apr-18 02:59N 40°51' E 029°15'0 0.1
2017-Apr-18 02:23N 40°51' E 029°15'0 0.1
2017-Apr-18 01:59N 40°51' E 029°14'0 0.0
2017-Apr-18 01:29N 40°51' E 029°14'0 0.0
2017-Apr-18 00:59N 40°51' E 029°14'0 0.0
2017-Apr-18 00:29N 40°51' E 029°14'0 0.0
2017-Apr-17 23:47N 40°51' E 029°14'0 0.0
2017-Apr-17 23:29N 40°51' E 029°14'0 0.0
2017-Apr-17 22:59N 40°51' E 029°14'0 0.0
2017-Apr-17 22:29N 40°51' E 029°14'0 0.0
2017-Apr-17 21:59N 40°51' E 029°14'0 0.0
2017-Apr-17 21:29N 40°51' E 029°14'0 0.0
2017-Apr-17 20:59N 40°51' E 029°14'0 0.1
2017-Apr-17 20:29N 40°51' E 029°14'0 0.0
2017-Apr-17 19:59N 40°51' E 029°14'0 0.0
2017-Apr-17 19:23N 40°51' E 029°14'0 0.1
2017-Apr-17 18:53N 40°51' E 029°14'0 0.0
2017-Apr-17 18:17N 40°51' E 029°14'0 0.0
2017-Apr-17 17:59N 40°51' E 029°14'0 0.0
2017-Apr-17 17:29N 40°51' E 029°14'0 0.0
2017-Apr-17 16:59N 40°51' E 029°14'0 0.0
2017-Apr-17 16:05N 40°51' E 029°14'0 0.1
2017-Apr-17 15:59N 40°51' E 029°14'0 0.0
2017-Apr-17 15:23N 40°51' E 029°14'0 0.1
2017-Apr-17 14:59N 40°51' E 029°15'0 0.1
2017-Apr-17 13:59N 40°51' E 029°15'0 0.0
2017-Apr-17 13:23N 40°51' E 029°15'0 0.0
2017-Apr-17 12:59N 40°51' E 029°15'0 0.0
2017-Apr-17 12:29N 40°51' E 029°15'0 0.0
2017-Apr-17 11:59N 40°51' E 029°15'0 0.0
2017-Apr-17 11:29N 40°51' E 029°15'0 0.0
2017-Apr-17 10:59N 40°51' E 029°15'0 0.0
2017-Apr-17 10:17N 40°51' E 029°15'0 0.0
2017-Apr-17 09:53N 40°51' E 029°15'0 0.0
2017-Apr-17 09:29N 40°51' E 029°15'0 0.0
2017-Apr-17 08:59N 40°51' E 029°15'0 0.0
2017-Apr-17 08:29N 40°51' E 029°15'0 0.0
2017-Apr-17 07:59N 40°51' E 029°15'0 0.0
2017-Apr-17 07:29N 40°51' E 029°15'0 0.0
2017-Apr-17 06:59N 40°51' E 029°15'0 0.0
2017-Apr-17 06:29N 40°51' E 029°15'0 0.0
2017-Apr-17 05:59N 40°51' E 029°15'0 0.0
2017-Apr-17 05:29N 40°51' E 029°15'0 0.0
2017-Apr-17 04:59N 40°51' E 029°15'0 0.0
2017-Apr-17 04:23N 40°51' E 029°15'0 0.0
2017-Apr-17 03:59N 40°51' E 029°15'0 0.1
2017-Apr-17 03:29N 40°51' E 029°15'0 0.0
2017-Apr-17 02:53N 40°51' E 029°15'0 0.0
2017-Apr-17 02:29N 40°51' E 029°15'0 0.1
2017-Apr-17 01:59N 40°51' E 029°15'0 0.0
2017-Apr-17 01:29N 40°51' E 029°15'0 0.0
2017-Apr-17 00:59N 40°51' E 029°15'0 0.0
2017-Apr-17 00:29N 40°51' E 029°15'0 0.0
2017-Apr-16 23:59N 40°51' E 029°15'0 0.0
2017-Apr-16 23:23N 40°51' E 029°15'0 0.0
2017-Apr-16 22:59N 40°51' E 029°15'0 0.0
2017-Apr-16 22:29N 40°51' E 029°15'0 0.1
2017-Apr-16 21:59N 40°51' E 029°15'0 0.1
2017-Apr-16 21:29N 40°51' E 029°15'0 0.0
2017-Apr-16 20:59N 40°51' E 029°15'0 0.0
2017-Apr-16 20:29N 40°51' E 029°15'0 0.1
2017-Apr-16 19:59N 40°51' E 029°15'0 0.0
2017-Apr-16 19:29N 40°51' E 029°15'0 0.0
2017-Apr-16 18:59N 40°51' E 029°15'0 0.1
2017-Apr-16 18:17N 40°51' E 029°15'0 0.0
2017-Apr-16 17:59N 40°51' E 029°15'0 0.0
2017-Apr-16 17:29N 40°51' E 029°14'0 0.0
2017-Apr-16 16:59N 40°51' E 029°14'0 0.1
2017-Apr-16 16:29N 40°51' E 029°15'0 0.1
2017-Apr-16 15:59N 40°51' E 029°15'0 0.2
2017-Apr-16 15:29N 40°51' E 029°15'0 0.0
2017-Apr-16 14:59N 40°51' E 029°15'0 0.0
2017-Apr-16 13:59N 40°51' E 029°15'0 0.0
2017-Apr-16 13:29N 40°51' E 029°15'0 0.1
2017-Apr-16 12:59N 40°51' E 029°15'0 0.1
2017-Apr-16 12:29N 40°51' E 029°15'0 0.0
2017-Apr-16 11:59N 40°51' E 029°15'0 0.0
2017-Apr-16 11:29N 40°51' E 029°15'0 0.0
2017-Apr-16 10:59N 40°51' E 029°15'0 0.0
2017-Apr-16 10:29N 40°51' E 029°15'0 0.0
2017-Apr-16 09:47N 40°51' E 029°15'0 0.0
2017-Apr-16 09:29N 40°51' E 029°15'0 0.0
2017-Apr-16 08:59N 40°51' E 029°15'0 0.0
2017-Apr-16 08:29N 40°51' E 029°15'0 0.0
2017-Apr-16 07:59N 40°51' E 029°15'0 0.0
2017-Apr-16 07:23N 40°51' E 029°15'0 0.0
2017-Apr-16 06:59N 40°51' E 029°15'0 0.0
2017-Apr-16 06:29N 40°51' E 029°15'0 0.0
2017-Apr-16 05:53N 40°51' E 029°15'0 0.0
2017-Apr-16 05:23N 40°51' E 029°15'0 0.1
2017-Apr-16 04:53N 40°51' E 029°15'0 0.0
2017-Apr-16 04:29N 40°51' E 029°15'0 0.0
2017-Apr-16 03:59N 40°51' E 029°15'0 0.0
2017-Apr-16 03:29N 40°51' E 029°15'0 0.0
2017-Apr-16 02:59N 40°51' E 029°15'0 0.0
2017-Apr-16 02:23N 40°51' E 029°15'0 0.0
2017-Apr-16 01:59N 40°51' E 029°15'0 0.0
2017-Apr-16 01:23N 40°51' E 029°15'0 0.0
2017-Apr-16 00:59N 40°51' E 029°15'0 0.0
2017-Apr-16 00:29N 40°51' E 029°15'  
Track history (hours):
 
Tides and Currents Weather Stations Pressure Air Temp Water Temp Dewpoint Dewpoint Depression Visibility Wind Speed Wind Dir Waves Ship Positions

Mustafa Sofuoglu

Last reported at 2017-Apr-26 00:22 UTC. Time now 2017-Apr-27 14:50 UTC.
Position N 40°47' E 029°36'.

Length 106 m; draft 7.2 m.

Type: Cargo ship. MMSI: 271000831.

Date/timePositionNaut miles runAvg speedWind from/ knotsBaromVisibWave heightAir tempDewpointWater temp
2017-Apr-26 00:22N 40°47' E 029°36'2 4.7
2017-Apr-26 00:00N 40°45' E 029°34'5 9.6
2017-Apr-25 23:30N 40°44' E 029°28'510.7
2017-Apr-25 23:00N 40°44' E 029°21'5 9.7
2017-Apr-25 22:30N 40°45' E 029°15'612.2
2017-Apr-25 22:00N 40°48' E 029°08'612.2
2017-Apr-25 21:30N 40°51' E 029°00'611.8
2017-Apr-25 20:59N 40°56' E 028°57'  
2017-Apr-18 20:55N 40°59' E 028°60'810.0
2017-Apr-18 20:05N 40°54' E 029°08'111.0
2017-Apr-18 20:00N 40°53' E 029°09'2 4.0
2017-Apr-18 19:24N 40°52' E 029°12'0 0.0
2017-Apr-18 19:00N 40°52' E 029°12'0 0.0
2017-Apr-18 18:30N 40°52' E 029°12'0 0.0
2017-Apr-18 18:00N 40°52' E 029°12'0 0.0
2017-Apr-18 17:30N 40°52' E 029°12'0 0.0
2017-Apr-18 17:00N 40°52' E 029°12'0 0.1
2017-Apr-18 16:30N 40°52' E 029°12'0 0.1
2017-Apr-18 16:00N 40°52' E 029°12'1 1.2
2017-Apr-18 15:30N 40°52' E 029°12'2 4.1
2017-Apr-18 15:00N 40°51' E 029°15'0 0.0
2017-Apr-18 13:59N 40°51' E 029°15'0 0.0
2017-Apr-18 13:29N 40°51' E 029°15'0 0.0
2017-Apr-18 12:59N 40°51' E 029°15'0 0.0
2017-Apr-18 12:23N 40°51' E 029°15'0 0.0
2017-Apr-18 11:59N 40°51' E 029°15'0 0.0
2017-Apr-18 11:29N 40°51' E 029°15'0 0.0
2017-Apr-18 10:59N 40°51' E 029°15'0 0.0
2017-Apr-18 10:29N 40°51' E 029°15'0 0.0
2017-Apr-18 09:59N 40°51' E 029°15'0 0.0
2017-Apr-18 09:29N 40°51' E 029°15'0 0.0
2017-Apr-18 08:59N 40°51' E 029°15'0 0.0
2017-Apr-18 08:29N 40°51' E 029°15'0 0.0
2017-Apr-18 07:59N 40°51' E 029°15'0 0.0
2017-Apr-18 07:29N 40°51' E 029°15'0 0.0
2017-Apr-18 06:59N 40°51' E 029°15'0 0.0
2017-Apr-18 06:29N 40°51' E 029°15'0 0.0
2017-Apr-18 05:59N 40°51' E 029°15'0 0.0
2017-Apr-18 05:23N 40°51' E 029°15'0 0.0
2017-Apr-18 04:59N 40°51' E 029°15'0 0.0
2017-Apr-18 04:29N 40°51' E 029°15'0 0.0
2017-Apr-18 03:59N 40°51' E 029°15'0 0.0
2017-Apr-18 03:29N 40°51' E 029°15'0 0.0
2017-Apr-18 02:59N 40°51' E 029°15'0 0.1
2017-Apr-18 02:23N 40°51' E 029°15'0 0.1
2017-Apr-18 01:59N 40°51' E 029°14'0 0.0
2017-Apr-18 01:29N 40°51' E 029°14'0 0.0
2017-Apr-18 00:59N 40°51' E 029°14'0 0.0
2017-Apr-18 00:29N 40°51' E 029°14'0 0.0
2017-Apr-17 23:47N 40°51' E 029°14'0 0.0
2017-Apr-17 23:29N 40°51' E 029°14'0 0.0
2017-Apr-17 22:59N 40°51' E 029°14'0 0.0
2017-Apr-17 22:29N 40°51' E 029°14'0 0.0
2017-Apr-17 21:59N 40°51' E 029°14'0 0.0
2017-Apr-17 21:29N 40°51' E 029°14'0 0.0
2017-Apr-17 20:59N 40°51' E 029°14'0 0.1
2017-Apr-17 20:29N 40°51' E 029°14'0 0.0
2017-Apr-17 19:59N 40°51' E 029°14'0 0.0
2017-Apr-17 19:23N 40°51' E 029°14'0 0.1
2017-Apr-17 18:53N 40°51' E 029°14'0 0.0
2017-Apr-17 18:17N 40°51' E 029°14'0 0.0
2017-Apr-17 17:59N 40°51' E 029°14'0 0.0
2017-Apr-17 17:29N 40°51' E 029°14'0 0.0
2017-Apr-17 16:59N 40°51' E 029°14'0 0.0
2017-Apr-17 16:05N 40°51' E 029°14'0 0.1
2017-Apr-17 15:59N 40°51' E 029°14'0 0.0
2017-Apr-17 15:23N 40°51' E 029°14'0 0.1
2017-Apr-17 14:59N 40°51' E 029°15'0 0.1
2017-Apr-17 13:59N 40°51' E 029°15'0 0.0
2017-Apr-17 13:23N 40°51' E 029°15'0 0.0
2017-Apr-17 12:59N 40°51' E 029°15'0 0.0
2017-Apr-17 12:29N 40°51' E 029°15'0 0.0
2017-Apr-17 11:59N 40°51' E 029°15'0 0.0
2017-Apr-17 11:29N 40°51' E 029°15'0 0.0
2017-Apr-17 10:59N 40°51' E 029°15'0 0.0
2017-Apr-17 10:17N 40°51' E 029°15'0 0.0
2017-Apr-17 09:53N 40°51' E 029°15'0 0.0
2017-Apr-17 09:29N 40°51' E 029°15'0 0.0
2017-Apr-17 08:59N 40°51' E 029°15'0 0.0
2017-Apr-17 08:29N 40°51' E 029°15'0 0.0
2017-Apr-17 07:59N 40°51' E 029°15'0 0.0
2017-Apr-17 07:29N 40°51' E 029°15'0 0.0
2017-Apr-17 06:59N 40°51' E 029°15'0 0.0
2017-Apr-17 06:29N 40°51' E 029°15'0 0.0
2017-Apr-17 05:59N 40°51' E 029°15'0 0.0
2017-Apr-17 05:29N 40°51' E 029°15'0 0.0
2017-Apr-17 04:59N 40°51' E 029°15'0 0.0
2017-Apr-17 04:23N 40°51' E 029°15'0 0.0
2017-Apr-17 03:59N 40°51' E 029°15'0 0.1
2017-Apr-17 03:29N 40°51' E 029°15'0 0.0
2017-Apr-17 02:53N 40°51' E 029°15'0 0.0
2017-Apr-17 02:29N 40°51' E 029°15'0 0.1
2017-Apr-17 01:59N 40°51' E 029°15'0 0.0
2017-Apr-17 01:29N 40°51' E 029°15'0 0.0
2017-Apr-17 00:59N 40°51' E 029°15'0 0.0
2017-Apr-17 00:29N 40°51' E 029°15'0 0.0
2017-Apr-16 23:59N 40°51' E 029°15'0 0.0
2017-Apr-16 23:23N 40°51' E 029°15'0 0.0
2017-Apr-16 22:59N 40°51' E 029°15'0 0.0
2017-Apr-16 22:29N 40°51' E 029°15'0 0.1
2017-Apr-16 21:59N 40°51' E 029°15'0 0.1
2017-Apr-16 21:29N 40°51' E 029°15'0 0.0
2017-Apr-16 20:59N 40°51' E 029°15'0 0.0
2017-Apr-16 20:29N 40°51' E 029°15'0 0.1
2017-Apr-16 19:59N 40°51' E 029°15'0 0.0
2017-Apr-16 19:29N 40°51' E 029°15'0 0.0
2017-Apr-16 18:59N 40°51' E 029°15'0 0.1
2017-Apr-16 18:17N 40°51' E 029°15'0 0.0
2017-Apr-16 17:59N 40°51' E 029°15'0 0.0
2017-Apr-16 17:29N 40°51' E 029°14'0 0.0
2017-Apr-16 16:59N 40°51' E 029°14'0 0.1
2017-Apr-16 16:29N 40°51' E 029°15'0 0.1
2017-Apr-16 15:59N 40°51' E 029°15'0 0.2
2017-Apr-16 15:29N 40°51' E 029°15'0 0.0
2017-Apr-16 14:59N 40°51' E 029°15'0 0.0
2017-Apr-16 13:59N 40°51' E 029°15'0 0.0
2017-Apr-16 13:29N 40°51' E 029°15'0 0.1
2017-Apr-16 12:59N 40°51' E 029°15'0 0.1
2017-Apr-16 12:29N 40°51' E 029°15'0 0.0
2017-Apr-16 11:59N 40°51' E 029°15'0 0.0
2017-Apr-16 11:29N 40°51' E 029°15'0 0.0
2017-Apr-16 10:59N 40°51' E 029°15'0 0.0
2017-Apr-16 10:29N 40°51' E 029°15'0 0.0
2017-Apr-16 09:47N 40°51' E 029°15'0 0.0
2017-Apr-16 09:29N 40°51' E 029°15'0 0.0
2017-Apr-16 08:59N 40°51' E 029°15'0 0.0
2017-Apr-16 08:29N 40°51' E 029°15'0 0.0
2017-Apr-16 07:59N 40°51' E 029°15'0 0.0
2017-Apr-16 07:23N 40°51' E 029°15'0 0.0
2017-Apr-16 06:59N 40°51' E 029°15'0 0.0
2017-Apr-16 06:29N 40°51' E 029°15'0 0.0
2017-Apr-16 05:53N 40°51' E 029°15'0 0.0
2017-Apr-16 05:23N 40°51' E 029°15'0 0.1
2017-Apr-16 04:53N 40°51' E 029°15'0 0.0
2017-Apr-16 04:29N 40°51' E 029°15'0 0.0
2017-Apr-16 03:59N 40°51' E 029°15'0 0.0
2017-Apr-16 03:29N 40°51' E 029°15'0 0.0
2017-Apr-16 02:59N 40°51' E 029°15'0 0.0
2017-Apr-16 02:23N 40°51' E 029°15'0 0.0
2017-Apr-16 01:59N 40°51' E 029°15'0 0.0
2017-Apr-16 01:23N 40°51' E 029°15'0 0.0
2017-Apr-16 00:59N 40°51' E 029°15'0 0.0
2017-Apr-16 00:29N 40°51' E 029°15'  

Dump ship's entire track history